Time;durP1;ratioP1;P1;durP2;ratioP2;P2;SDS_P1;SDS_P2;PMS_P1;PMS_P2;Temp;Humidity;BMP_temperature;BMP_pressure;BME280_temperature;BME280_humidity;BME280_pressure;Samples;Min_cycle;Max_cycle;Signal;HPM_P1;HPM_P2
2021/10/31 00:02:13;;;;;;;18.25;10.15;;;;;;;;;;5050061;28;20461;-66
2021/10/31 00:04:38;;;;;;;18.25;8.98;;;;;;;;;;5050850;28;20013;-66
2021/10/31 00:07:04;;;;;;;18.88;9.13;;;;;;;;;;5051315;28;20090;-67
2021/10/31 00:09:29;;;;;;;24.35;11.15;;;;;;;;;;5051102;28;20021;-67
2021/10/31 00:11:54;;;;;;;18.17;9.50;;;;;;;;;;5049318;28;20031;-66
2021/10/31 00:14:20;;;;;;;20.73;9.85;;;;;;;;;;5048353;28;20385;-66
2021/10/31 00:16:45;;;;;;;16.10;8.55;;;;;;;;;;5050813;28;20063;-66
2021/10/31 00:19:11;;;;;;;18.02;9.90;;;;;;;;;;5051218;28;20021;-67
2021/10/31 00:21:36;;;;;;;20.05;10.05;;;;;;;;;;5050885;28;20112;-67
2021/10/31 00:24:01;;;;;;;19.00;9.73;;;;;;;;;;5050672;28;20092;-66
2021/10/31 00:26:27;;;;;;;19.65;9.38;;;;;;;;;;5050364;28;20024;-65
2021/10/31 00:28:52;;;;;;;16.15;9.38;;;;;;;;;;5050356;28;20024;-67
2021/10/31 00:31:17;;;;;;;14.50;8.07;;;;;;;;;;5051268;28;20053;-66
2021/10/31 00:33:42;;;;;;;15.95;8.65;;;;;;;;;;5050949;28;20278;-66
2021/10/31 00:36:08;;;;;;;18.35;9.55;;;;;;;;;;5032942;28;20017;-66
2021/10/31 00:38:33;;;;;;;17.50;9.15;;;;;;;;;;5050753;28;20083;-67
2021/10/31 00:40:58;;;;;;;22.13;9.50;;;;;;;;;;5050953;28;20017;-66
2021/10/31 00:43:23;;;;;;;20.50;8.30;;;;;;;;;;5049987;28;20021;-66
2021/10/31 00:45:49;;;;;;;17.48;9.43;;;;;;;;;;5047245;28;20069;-66
2021/10/31 00:48:14;;;;;;;22.27;9.35;;;;;;;;;;5048599;28;20017;-66
2021/10/31 00:50:40;;;;;;;17.00;9.55;;;;;;;;;;5050700;28;20028;-66
2021/10/31 00:53:06;;;;;;;15.30;9.15;;;;;;;;;;5058014;28;20023;-66
2021/10/31 00:55:31;;;;;;;15.77;9.20;;;;;;;;;;5053245;28;20109;-66
2021/10/31 00:57:58;;;;;;;19.63;9.82;;;;;;;;;;5051807;28;20482;-66
2021/10/31 01:00:23;;;;;;;16.23;8.88;;;;;;;;;;5049972;28;20142;-66
2021/10/31 01:02:48;;;;;;;14.25;8.88;;;;;;;;;;5047330;28;20465;-66
2021/10/31 01:05:17;;;;;;;17.48;8.70;;;;;;;;;;5045699;28;20020;-66
2021/10/31 01:08:03;;;;;;;17.00;9.57;;;;;;;;;;5050324;28;20092;-66
2021/10/31 01:10:28;;;;;;;18.60;9.73;;;;;;;;;;5050495;28;20645;-64
2021/10/31 01:13:11;;;;;;;17.83;8.63;;;;;;;;;;5050546;28;20100;-65
2021/10/31 01:15:48;;;;;;;16.75;8.52;;;;;;;;;;5048217;28;20786;-66
2021/10/31 01:18:22;;;;;;;18.38;9.35;;;;;;;;;;5050385;28;20103;-64
2021/10/31 01:21:05;;;;;;;18.92;9.07;;;;;;;;;;5050345;28;20082;-64
2021/10/31 01:23:59;;;;;;;13.55;7.70;;;;;;;;;;5049645;28;20009;-64
2021/10/31 01:26:25;;;;;;;20.90;7.88;;;;;;;;;;4978550;28;20058;-65
2021/10/31 01:28:56;;;;;;;15.27;8.25;;;;;;;;;;5050206;28;20021;-65
2021/10/31 01:31:43;;;;;;;17.65;8.50;;;;;;;;;;5061337;28;20021;-65
2021/10/31 01:34:16;;;;;;;17.98;8.20;;;;;;;;;;5043989;28;20025;-64
2021/10/31 01:36:59;;;;;;;16.42;9.00;;;;;;;;;;5050929;28;20025;-67
2021/10/31 01:39:33;;;;;;;17.17;9.52;;;;;;;;;;5064335;28;20465;-67
2021/10/31 01:42:08;;;;;;;15.38;7.70;;;;;;;;;;5044343;28;20112;-64
2021/10/31 01:44:47;;;;;;;13.80;8.30;;;;;;;;;;5030187;28;20022;-66
2021/10/31 01:47:24;;;;;;;20.05;9.13;;;;;;;;;;5046841;28;20388;-67
2021/10/31 01:50:10;;;;;;;14.68;7.85;;;;;;;;;;5049416;28;20036;-66
2021/10/31 01:52:37;;;;;;;15.00;8.88;;;;;;;;;;5048814;28;20063;-67
2021/10/31 01:55:07;;;;;;;13.05;6.78;;;;;;;;;;5050254;28;20027;-67
2021/10/31 01:57:35;;;;;;;16.00;7.95;;;;;;;;;;5049969;28;20052;-66
2021/10/31 02:00:05;;;;;;;21.25;8.30;;;;;;;;;;5050116;28;20021;-67
2021/10/31 02:02:33;;;;;;;17.23;8.60;;;;;;;;;;5049552;28;20025;-66
2021/10/31 02:04:59;;;;;;;14.10;7.90;;;;;;;;;;5048394;28;20623;-66
2021/10/31 02:07:29;;;;;;;18.00;7.95;;;;;;;;;;5048986;28;20045;-66
2021/10/31 02:09:55;;;;;;;12.85;7.00;;;;;;;;;;5049952;28;20123;-67
2021/10/31 02:12:21;;;;;;;13.18;7.57;;;;;;;;;;5049452;28;20477;-66
2021/10/31 02:14:47;;;;;;;16.83;7.72;;;;;;;;;;5049417;28;20094;-66
2021/10/31 02:17:14;;;;;;;16.80;7.80;;;;;;;;;;5049899;28;20377;-67
2021/10/31 02:19:41;;;;;;;15.90;7.68;;;;;;;;;;5052646;28;20033;-67
2021/10/31 02:22:08;;;;;;;17.55;8.23;;;;;;;;;;5052088;28;20516;-66
2021/10/31 02:24:36;;;;;;;12.73;7.93;;;;;;;;;;5052830;28;20029;-66
2021/10/31 02:27:21;;;;;;;16.15;8.02;;;;;;;;;;5053203;28;20473;-66
2021/10/31 02:29:48;;;;;;;15.20;7.68;;;;;;;;;;5051310;28;20391;-66
2021/10/31 02:32:14;;;;;;;15.18;7.13;;;;;;;;;;5048125;28;20028;-66
2021/10/31 02:34:39;;;;;;;17.08;7.50;;;;;;;;;;5053016;28;20538;-66
2021/10/31 02:37:04;;;;;;;13.70;7.55;;;;;;;;;;5052616;28;20028;-67
2021/10/31 02:39:29;;;;;;;16.77;8.35;;;;;;;;;;5052310;28;20017;-66
2021/10/31 02:41:55;;;;;;;14.50;8.27;;;;;;;;;;5052776;28;20503;-67
2021/10/31 02:44:20;;;;;;;13.80;8.07;;;;;;;;;;5053035;28;20457;-65
2021/10/31 02:46:45;;;;;;;12.38;7.35;;;;;;;;;;5046122;28;20074;-67
2021/10/31 02:49:11;;;;;;;13.30;7.32;;;;;;;;;;5052755;28;20025;-66
2021/10/31 02:51:51;;;;;;;12.35;6.93;;;;;;;;;;5051987;28;20099;-66
2021/10/31 02:54:16;;;;;;;;;;;;;;;;;;5040695;28;20036;-66
2021/10/31 02:56:43;;;;;;;15.93;8.38;;;;;;;;;;5038471;28;19917;-66
2021/10/31 02:59:16;;;;;;;12.65;7.03;;;;;;;;;;5057935;28;20029;-66
2021/10/31 03:01:42;;;;;;;13.68;7.65;;;;;;;;;;5053512;28;20119;-66
2021/10/31 03:04:09;;;;;;;13.20;7.03;;;;;;;;;;5070048;28;20067;-66
2021/10/31 03:06:34;;;;;;;14.43;7.88;;;;;;;;;;5044667;28;20026;-67
2021/10/31 03:08:59;;;;;;;11.75;6.68;;;;;;;;;;5058623;28;20025;-67
2021/10/31 03:11:26;;;;;;;14.45;7.80;;;;;;;;;;5064590;28;20017;-66
2021/10/31 03:13:51;;;;;;;10.18;6.68;;;;;;;;;;5051020;28;20031;-67
2021/10/31 03:16:17;;;;;;;13.45;7.07;;;;;;;;;;5052758;28;20096;-65
2021/10/31 03:18:42;;;;;;;15.90;7.15;;;;;;;;;;5052008;28;20036;-67
2021/10/31 03:21:07;;;;;;;15.48;7.03;;;;;;;;;;5051709;28;20063;-66
2021/10/31 03:23:32;;;;;;;11.45;6.40;;;;;;;;;;5051270;28;20519;-66
2021/10/31 03:25:58;;;;;;;11.00;6.63;;;;;;;;;;5032647;28;20033;-67
2021/10/31 03:28:23;;;;;;;11.43;6.82;;;;;;;;;;5032425;28;20382;-67
2021/10/31 03:30:48;;;;;;;16.30;6.95;;;;;;;;;;5032122;28;20104;-67
2021/10/31 03:33:14;;;;;;;15.57;6.65;;;;;;;;;;5032403;28;20071;-67
2021/10/31 03:35:41;;;;;;;9.73;6.75;;;;;;;;;;5032337;28;20497;-66
2021/10/31 03:38:06;;;;;;;11.35;6.22;;;;;;;;;;5050477;28;20147;-67
2021/10/31 03:40:31;;;;;;;15.20;7.38;;;;;;;;;;5051909;28;20549;-67
2021/10/31 03:42:57;;;;;;;18.70;6.60;;;;;;;;;;5051530;28;20448;-66
2021/10/31 03:45:22;;;;;;;13.82;6.10;;;;;;;;;;5052090;28;20541;-66
2021/10/31 03:47:48;;;;;;;12.95;7.45;;;;;;;;;;5051660;28;20039;-66
2021/10/31 03:50:14;;;;;;;12.57;7.10;;;;;;;;;;5051351;28;20096;-67
2021/10/31 03:52:40;;;;;;;12.52;6.28;;;;;;;;;;5047567;28;20029;-65
2021/10/31 03:55:07;;;;;;;11.52;6.50;;;;;;;;;;5037887;28;20023;-65
2021/10/31 03:57:33;;;;;;;12.85;7.03;;;;;;;;;;5051036;28;20047;-66
2021/10/31 03:59:58;;;;;;;10.93;6.32;;;;;;;;;;5051499;28;20477;-66
2021/10/31 04:02:23;;;;;;;9.70;6.10;;;;;;;;;;5051356;28;20029;-67
2021/10/31 04:04:48;;;;;;;15.45;6.38;;;;;;;;;;5052682;28;20075;-65
2021/10/31 04:07:13;;;;;;;16.58;6.70;;;;;;;;;;5051864;28;20522;-66
2021/10/31 04:09:39;;;;;;;12.23;6.95;;;;;;;;;;5044925;28;20494;-65
2021/10/31 04:12:04;;;;;;;11.02;6.10;;;;;;;;;;5039136;28;20116;-66
2021/10/31 04:14:30;;;;;;;12.73;6.97;;;;;;;;;;5050623;28;20082;-66
2021/10/31 04:16:55;;;;;;;11.77;6.20;;;;;;;;;;5057331;28;20055;-66
2021/10/31 04:19:20;;;;;;;12.53;7.07;;;;;;;;;;5056826;28;20350;-67
2021/10/31 04:21:46;;;;;;;13.60;6.50;;;;;;;;;;5071206;28;20274;-66
2021/10/31 04:24:11;;;;;;;15.10;7.88;;;;;;;;;;5062687;28;20029;-66
2021/10/31 04:26:36;;;;;;;14.68;6.65;;;;;;;;;;5057553;28;20373;-67
2021/10/31 04:29:01;;;;;;;11.38;6.57;;;;;;;;;;5059049;28;20055;-65
2021/10/31 04:31:26;;;;;;;16.30;6.25;;;;;;;;;;5063660;28;20020;-66
2021/10/31 04:33:52;;;;;;;10.55;5.78;;;;;;;;;;5069934;28;20024;-66
2021/10/31 04:36:18;;;;;;;12.60;6.78;;;;;;;;;;5051016;28;20433;-67
2021/10/31 04:38:45;;;;;;;12.48;6.82;;;;;;;;;;5056957;28;20048;-65
2021/10/31 04:41:11;;;;;;;11.25;6.60;;;;;;;;;;5067940;28;20473;-67
2021/10/31 04:43:37;;;;;;;10.77;6.60;;;;;;;;;;5050057;28;20090;-66
2021/10/31 04:46:02;;;;;;;13.27;6.57;;;;;;;;;;5049924;28;20028;-66
2021/10/31 04:48:27;;;;;;;13.63;5.90;;;;;;;;;;5054988;28;20478;-67
2021/10/31 04:50:53;;;;;;;12.70;5.28;;;;;;;;;;5051044;28;20489;-66
2021/10/31 04:53:18;;;;;;;14.63;6.13;;;;;;;;;;5052527;28;20033;-65
2021/10/31 04:55:43;;;;;;;10.35;5.47;;;;;;;;;;5061873;28;20032;-67
2021/10/31 04:58:09;;;;;;;7.50;4.78;;;;;;;;;;5049582;28;20025;-66
2021/10/31 05:00:35;;;;;;;9.85;5.40;;;;;;;;;;5058497;28;20029;-67
2021/10/31 05:03:01;;;;;;;6.85;3.85;;;;;;;;;;5050183;28;20103;-66
2021/10/31 05:05:26;;;;;;;9.68;5.00;;;;;;;;;;5035473;28;20112;-66
2021/10/31 05:07:55;;;;;;;10.68;5.20;;;;;;;;;;5030240;28;20048;-66
2021/10/31 05:10:20;;;;;;;14.23;6.30;;;;;;;;;;5030886;28;20025;-66
2021/10/31 05:12:46;;;;;;;13.05;6.03;;;;;;;;;;5050179;28;20130;-66
2021/10/31 05:15:12;;;;;;;11.57;6.68;;;;;;;;;;5050165;28;20380;-66
2021/10/31 05:17:37;;;;;;;9.13;5.78;;;;;;;;;;5047389;28;20107;-65
2021/10/31 05:20:03;;;;;;;12.57;6.13;;;;;;;;;;5050003;28;20053;-66
2021/10/31 05:22:28;;;;;;;12.43;6.28;;;;;;;;;;5050250;28;20226;-67
2021/10/31 05:24:53;;;;;;;9.85;5.65;;;;;;;;;;5049898;28;20527;-66
2021/10/31 05:27:19;;;;;;;9.25;5.90;;;;;;;;;;5050192;28;20095;-67
2021/10/31 05:29:44;;;;;;;9.93;5.75;;;;;;;;;;5050225;28;20546;-67
2021/10/31 05:32:09;;;;;;;12.68;5.65;;;;;;;;;;5048071;28;20025;-66
2021/10/31 05:34:34;;;;;;;9.82;4.35;;;;;;;;;;5049392;28;20029;-67
2021/10/31 05:37:00;;;;;;;15.43;5.10;;;;;;;;;;5047853;28;20414;-66
2021/10/31 05:39:25;;;;;;;13.55;5.88;;;;;;;;;;5049388;28;20025;-67
2021/10/31 05:41:50;;;;;;;10.73;4.65;;;;;;;;;;5049425;28;20473;-66
2021/10/31 05:44:15;;;;;;;8.50;5.20;;;;;;;;;;5052241;28;20106;-66
2021/10/31 05:46:40;;;;;;;7.32;3.50;;;;;;;;;;5052455;28;20259;-66
2021/10/31 05:49:06;;;;;;;6.57;4.03;;;;;;;;;;5050036;28;20021;-65
2021/10/31 05:51:32;;;;;;;7.20;4.22;;;;;;;;;;5047778;28;20017;-66
2021/10/31 05:53:57;;;;;;;9.57;4.72;;;;;;;;;;5052694;28;20564;-66
2021/10/31 05:56:22;;;;;;;10.77;5.10;;;;;;;;;;5053205;28;20030;-67
2021/10/31 05:58:48;;;;;;;9.63;4.43;;;;;;;;;;5052715;28;20048;-66
2021/10/31 06:01:13;;;;;;;6.22;3.45;;;;;;;;;;5050058;28;20611;-66
2021/10/31 06:03:38;;;;;;;6.57;4.03;;;;;;;;;;5051488;28;20039;-65
2021/10/31 06:06:03;;;;;;;3.13;2.40;;;;;;;;;;5051782;28;20501;-66
2021/10/31 06:08:28;;;;;;;8.07;4.30;;;;;;;;;;5051879;28;20029;-66
2021/10/31 06:10:54;;;;;;;8.10;3.90;;;;;;;;;;5051831;28;20096;-66
2021/10/31 06:13:19;;;;;;;8.63;2.65;;;;;;;;;;5051622;28;20469;-65
2021/10/31 06:15:46;;;;;;;5.70;3.38;;;;;;;;;;5051469;28;20443;-66
2021/10/31 06:18:14;;;;;;;10.85;4.18;;;;;;;;;;5049198;28;20012;-66
2021/10/31 06:20:40;;;;;;;8.13;4.10;;;;;;;;;;5031558;28;20021;-66
2021/10/31 06:23:05;;;;;;;2.85;1.67;;;;;;;;;;5031158;28;20036;-66
2021/10/31 06:25:31;;;;;;;5.22;2.65;;;;;;;;;;5030510;28;20375;-67
2021/10/31 06:27:56;;;;;;;2.20;1.17;;;;;;;;;;5031533;28;20025;-66
2021/10/31 06:30:21;;;;;;;6.23;3.60;;;;;;;;;;5039737;28;20070;-66
2021/10/31 06:32:47;;;;;;;4.43;2.65;;;;;;;;;;5056357;28;20748;-67
2021/10/31 06:35:12;;;;;;;7.03;3.30;;;;;;;;;;5050207;28;20017;-66
2021/10/31 06:37:37;;;;;;;9.95;3.42;;;;;;;;;;5044434;28;20020;-66
2021/10/31 06:40:03;;;;;;;5.22;3.20;;;;;;;;;;5052672;28;20384;-66
2021/10/31 06:42:29;;;;;;;4.15;2.78;;;;;;;;;;5052670;28;20017;-66
2021/10/31 06:44:55;;;;;;;7.80;2.88;;;;;;;;;;5053771;28;20022;-66
2021/10/31 06:47:20;;;;;;;3.83;2.60;;;;;;;;;;5049411;28;20017;-66
2021/10/31 06:49:45;;;;;;;8.85;3.15;;;;;;;;;;5040228;28;20021;-66
2021/10/31 06:52:11;;;;;;;3.55;2.30;;;;;;;;;;5047300;28;20473;-66
2021/10/31 06:54:36;;;;;;;3.85;2.28;;;;;;;;;;5048749;28;20016;-66
2021/10/31 06:57:02;;;;;;;4.65;2.83;;;;;;;;;;5034506;28;20456;-66
2021/10/31 06:59:27;;;;;;;5.53;2.85;;;;;;;;;;5049290;28;20059;-65
2021/10/31 07:01:52;;;;;;;4.47;2.88;;;;;;;;;;5050528;28;20024;-66
2021/10/31 07:04:17;;;;;;;9.45;3.38;;;;;;;;;;5050339;28;20655;-66
2021/10/31 07:06:43;;;;;;;6.35;3.35;;;;;;;;;;5049070;28;20081;-66
2021/10/31 07:09:08;;;;;;;9.88;3.13;;;;;;;;;;5047153;28;20060;-65
2021/10/31 07:11:33;;;;;;;6.73;3.10;;;;;;;;;;5050314;28;20492;-67
2021/10/31 07:13:58;;;;;;;3.80;2.78;;;;;;;;;;5049635;28;20286;-67
2021/10/31 07:16:23;;;;;;;5.50;3.25;;;;;;;;;;5050284;28;20047;-65
2021/10/31 07:18:49;;;;;;;4.45;1.58;;;;;;;;;;5049792;28;20107;-67
2021/10/31 07:21:14;;;;;;;5.80;3.45;;;;;;;;;;5050269;28;20025;-66
2021/10/31 07:23:39;;;;;;;3.00;1.83;;;;;;;;;;5049243;28;20108;-67
2021/10/31 07:26:04;;;;;;;6.03;2.80;;;;;;;;;;5051760;28;20873;-65
2021/10/31 07:28:29;;;;;;;9.00;2.40;;;;;;;;;;5052298;28;20099;-66
2021/10/31 07:30:55;;;;;;;3.10;1.98;;;;;;;;;;5052463;28;20298;-67
2021/10/31 07:33:21;;;;;;;2.95;1.30;;;;;;;;;;5050212;28;20020;-66
2021/10/31 07:35:46;;;;;;;6.18;2.83;;;;;;;;;;5052433;28;20028;-66
2021/10/31 07:38:12;;;;;;;1.50;1.20;;;;;;;;;;5051919;28;20017;-66
2021/10/31 07:40:37;;;;;;;4.85;2.70;;;;;;;;;;5052207;28;20023;-67
2021/10/31 07:43:04;;;;;;;3.45;2.22;;;;;;;;;;5051473;28;20079;-67
2021/10/31 07:45:29;;;;;;;6.47;2.35;;;;;;;;;;5032361;28;20024;-66
2021/10/31 07:47:55;;;;;;;4.10;2.50;;;;;;;;;;5031854;28;20132;-66
2021/10/31 07:50:20;;;;;;;3.58;2.22;;;;;;;;;;5043867;28;20021;-66
2021/10/31 07:52:45;;;;;;;2.83;2.17;;;;;;;;;;5053777;28;20017;-66
2021/10/31 07:55:14;;;;;;;2.38;1.60;;;;;;;;;;5051200;28;20489;-66
2021/10/31 07:57:39;;;;;;;3.90;1.45;;;;;;;;;;5051474;28;20020;-66
2021/10/31 08:00:05;;;;;;;5.88;1.98;;;;;;;;;;5050717;28;20885;-66
2021/10/31 08:02:30;;;;;;;3.83;2.17;;;;;;;;;;5031847;28;20049;-65
2021/10/31 08:04:55;;;;;;;4.43;2.38;;;;;;;;;;5031708;28;20017;-66
2021/10/31 08:07:27;;;;;;;5.63;2.47;;;;;;;;;;5043833;28;20394;-67
2021/10/31 08:09:53;;;;;;;3.28;2.20;;;;;;;;;;5051328;28;20771;-65
2021/10/31 08:12:18;;;;;;;5.57;2.10;;;;;;;;;;5051462;28;20029;-66
2021/10/31 08:14:43;;;;;;;3.10;1.40;;;;;;;;;;5048677;28;20032;-67
2021/10/31 08:17:08;;;;;;;5.23;2.33;;;;;;;;;;5046734;28;20032;-66
2021/10/31 08:19:33;;;;;;;5.27;2.20;;;;;;;;;;5031470;28;20299;-66
2021/10/31 08:21:59;;;;;;;10.25;2.42;;;;;;;;;;5045764;28;20325;-66
2021/10/31 08:24:24;;;;;;;4.60;2.07;;;;;;;;;;5047939;28;20033;-64
2021/10/31 08:26:50;;;;;;;3.55;2.35;;;;;;;;;;5040139;28;20342;-66
2021/10/31 08:29:19;;;;;;;0.40;0.40;;;;;;;;;;5051480;28;20096;-68
2021/10/31 08:31:48;;;;;;;4.32;2.08;;;;;;;;;;5046583;28;20047;-66
2021/10/31 08:34:14;;;;;;;3.53;2.00;;;;;;;;;;5045048;28;20083;-66
2021/10/31 08:36:39;;;;;;;7.05;2.58;;;;;;;;;;5048835;28;20059;-66
2021/10/31 08:39:07;;;;;;;5.50;2.27;;;;;;;;;;5048383;28;20021;-67
2021/10/31 08:41:32;;;;;;;4.80;2.38;;;;;;;;;;5049060;28;20264;-67
2021/10/31 08:43:58;;;;;;;3.88;2.40;;;;;;;;;;5030530;28;20025;-66
2021/10/31 08:46:24;;;;;;;5.50;2.00;;;;;;;;;;5049011;28;20053;-66
2021/10/31 08:48:49;;;;;;;4.80;2.13;;;;;;;;;;5047121;28;20033;-65
2021/10/31 08:51:16;;;;;;;1.95;1.05;;;;;;;;;;5049086;28;20017;-67
2021/10/31 08:53:41;;;;;;;5.22;2.08;;;;;;;;;;5035698;28;20120;-66
2021/10/31 08:56:10;;;;;;;3.13;1.63;;;;;;;;;;5049580;28;20111;-66
2021/10/31 08:58:36;;;;;;;3.40;1.58;;;;;;;;;;5050484;28;20013;-66
2021/10/31 09:01:02;;;;;;;1.55;1.05;;;;;;;;;;5046253;28;20025;-66
2021/10/31 09:03:27;;;;;;;7.05;1.80;;;;;;;;;;5050235;28;20016;-66
2021/10/31 09:05:52;;;;;;;3.72;1.83;;;;;;;;;;5050533;28;20052;-66
2021/10/31 09:08:17;;;;;;;2.83;1.97;;;;;;;;;;5042162;28;20029;-66
2021/10/31 09:10:42;;;;;;;3.13;1.83;;;;;;;;;;5048291;28;20303;-66
2021/10/31 09:13:08;;;;;;;4.60;2.03;;;;;;;;;;5049856;28;20267;-64
2021/10/31 09:15:33;;;;;;;4.60;2.30;;;;;;;;;;5050552;28;20025;-66
2021/10/31 09:17:59;;;;;;;5.75;2.75;;;;;;;;;;5050472;28;20020;-66
2021/10/31 09:20:26;;;;;;;4.47;2.28;;;;;;;;;;5049923;28;20510;-66
2021/10/31 09:22:53;;;;;;;3.58;2.30;;;;;;;;;;5050004;28;20027;-66
2021/10/31 09:25:18;;;;;;;6.97;3.65;;;;;;;;;;5048111;28;20029;-67
2021/10/31 09:27:44;;;;;;;4.03;2.53;;;;;;;;;;5041902;28;20020;-66
2021/10/31 09:30:10;;;;;;;5.10;3.13;;;;;;;;;;5050184;28;20025;-67
2021/10/31 09:32:46;;;;;;;7.70;2.67;;;;;;;;;;5050174;28;20021;-65
2021/10/31 09:35:18;;;;;;;4.60;2.65;;;;;;;;;;5049792;28;20021;-67
2021/10/31 09:37:45;;;;;;;2.40;1.90;;;;;;;;;;5050260;28;20017;-65
2021/10/31 09:40:10;;;;;;;5.32;3.50;;;;;;;;;;5049962;28;20028;-66
2021/10/31 09:42:37;;;;;;;2.50;1.30;;;;;;;;;;5045499;28;20009;-65
2021/10/31 09:45:04;;;;;;;4.57;2.78;;;;;;;;;;5030169;28;20029;-66
2021/10/31 09:47:29;;;;;;;4.70;3.10;;;;;;;;;;5031742;28;20025;-66
2021/10/31 09:49:54;;;;;;;6.40;3.47;;;;;;;;;;5048529;28;20032;-66
2021/10/31 09:52:19;;;;;;;5.90;3.08;;;;;;;;;;5046668;28;20024;-66
2021/10/31 09:54:46;;;;;;;4.38;2.80;;;;;;;;;;5048771;28;20040;-67
2021/10/31 09:57:11;;;;;;;4.93;3.38;;;;;;;;;;5034560;28;20069;-64
2021/10/31 09:59:43;;;;;;;6.28;3.22;;;;;;;;;;5043649;28;20057;-66
2021/10/31 10:04:35;;;;;;;5.43;2.92;;;;;;;;;;5055516;28;20397;-65
2021/10/31 10:07:01;;;;;;;6.60;3.55;;;;;;;;;;5053673;28;20025;-66
2021/10/31 10:09:28;;;;;;;16.95;3.05;;;;;;;;;;5045618;28;20108;-66
2021/10/31 10:11:53;;;;;;;5.28;2.47;;;;;;;;;;5045512;28;20033;-66
2021/10/31 10:14:24;;;;;;;5.78;2.67;;;;;;;;;;5042544;28;20488;-65
2021/10/31 10:17:06;;;;;;;4.85;2.83;;;;;;;;;;5045723;28;20103;-66
2021/10/31 10:19:33;;;;;;;10.20;3.33;;;;;;;;;;5032545;28;20116;-66
2021/10/31 10:22:06;;;;;;;1.50;1.25;;;;;;;;;;5043768;28;20029;-66
2021/10/31 10:24:32;;;;;;;6.75;2.85;;;;;;;;;;5046145;28;20036;-66
2021/10/31 10:26:59;;;;;;;6.05;2.95;;;;;;;;;;5037218;28;20025;-67
2021/10/31 10:29:33;;;;;;;4.70;2.58;;;;;;;;;;5040699;28;20489;-66
2021/10/31 10:32:00;;;;;;;4.70;2.17;;;;;;;;;;5044782;28;20037;-66
2021/10/31 10:34:48;;;;;;;4.72;1.92;;;;;;;;;;5046612;28;20109;-66
2021/10/31 10:37:30;;;;;;;6.38;3.42;;;;;;;;;;5043741;28;20059;-65
2021/10/31 10:39:57;;;;;;;5.40;2.20;;;;;;;;;;5050206;28;20112;-66
2021/10/31 10:42:31;;;;;;;4.30;2.33;;;;;;;;;;5046216;28;20500;-67
2021/10/31 10:45:02;;;;;;;4.47;2.47;;;;;;;;;;5044270;28;20020;-67
2021/10/31 10:47:28;;;;;;;5.50;2.30;;;;;;;;;;5050562;28;20037;-65
2021/10/31 10:49:54;;;;;;;7.32;1.70;;;;;;;;;;5041605;28;20036;-65
2021/10/31 10:52:20;;;;;;;2.67;1.98;;;;;;;;;;5046698;28;20016;-66
2021/10/31 10:54:47;;;;;;;2.22;1.40;;;;;;;;;;5048536;28;20504;-67
2021/10/31 10:57:12;;;;;;;4.82;2.17;;;;;;;;;;5046212;28;20738;-65
2021/10/31 10:59:37;;;;;;;4.93;2.25;;;;;;;;;;5050465;28;20086;-65
2021/10/31 11:02:13;;;;;;;2.88;1.48;;;;;;;;;;5050441;28;20396;-65
2021/10/31 11:04:39;;;;;;;3.10;1.83;;;;;;;;;;5049408;28;20378;-65
2021/10/31 11:07:05;;;;;;;13.75;2.00;;;;;;;;;;5049045;28;20031;-65
2021/10/31 11:09:43;;;;;;;5.40;2.13;;;;;;;;;;5049233;28;20037;-64
2021/10/31 11:12:28;;;;;;;2.15;1.25;;;;;;;;;;5049160;28;20443;-66
2021/10/31 11:14:54;;;;;;;2.08;1.08;;;;;;;;;;5033734;28;20476;-65
2021/10/31 11:17:22;;;;;;;1.92;1.08;;;;;;;;;;5049383;28;20028;-66
2021/10/31 11:19:48;;;;;;;3.53;1.48;;;;;;;;;;5049863;28;20393;-66
2021/10/31 11:22:14;;;;;;;4.15;1.70;;;;;;;;;;5049851;28;20029;-65
2021/10/31 11:24:40;;;;;;;3.05;1.67;;;;;;;;;;5050042;28;20074;-66
2021/10/31 11:27:07;;;;;;;5.95;1.73;;;;;;;;;;5050350;28;20477;-66
2021/10/31 11:29:33;;;;;;;3.83;0.75;;;;;;;;;;5049701;28;20508;-66
2021/10/31 11:31:59;;;;;;;4.63;1.23;;;;;;;;;;5050070;28;20029;-65
2021/10/31 11:34:25;;;;;;;5.03;1.38;;;;;;;;;;5045954;28;20048;-65
2021/10/31 11:36:50;;;;;;;1.60;1.20;;;;;;;;;;5044927;28;20403;-66
2021/10/31 11:39:16;;;;;;;0.80;0.60;;;;;;;;;;5049163;28;20016;-66
2021/10/31 11:41:41;;;;;;;4.20;1.48;;;;;;;;;;5049482;28;20028;-65
2021/10/31 11:44:06;;;;;;;3.38;2.00;;;;;;;;;;5047905;28;20166;-65
2021/10/31 11:46:42;;;;;;;29.60;1.40;;;;;;;;;;5047101;28;20029;-65
2021/10/31 11:49:08;;;;;;;1.13;0.68;;;;;;;;;;5044379;28;20303;-66
2021/10/31 11:51:38;;;;;;;7.57;1.80;;;;;;;;;;5044803;28;20024;-66
2021/10/31 11:54:06;;;;;;;1.67;1.03;;;;;;;;;;5051206;28;20020;-66
2021/10/31 11:56:36;;;;;;;3.80;1.52;;;;;;;;;;5051888;28;20025;-66
2021/10/31 11:59:09;;;;;;;3.35;1.67;;;;;;;;;;5051567;28;20155;-66
2021/10/31 12:01:43;;;;;;;3.63;1.38;;;;;;;;;;5055311;28;20021;-66
2021/10/31 12:04:10;;;;;;;2.13;1.55;;;;;;;;;;5050850;28;20021;-67
2021/10/31 12:06:36;;;;;;;2.70;1.30;;;;;;;;;;5050532;28;20154;-66
2021/10/31 12:09:03;;;;;;;1.45;0.90;;;;;;;;;;5051512;28;20457;-66
2021/10/31 12:11:29;;;;;;;1.08;0.63;;;;;;;;;;5051421;28;20031;-65
2021/10/31 12:13:55;;;;;;;2.17;1.00;;;;;;;;;;5051448;28;20029;-64
2021/10/31 12:16:20;;;;;;;1.23;0.80;;;;;;;;;;5050975;28;20563;-65
2021/10/31 12:18:46;;;;;;;1.67;1.15;;;;;;;;;;5051008;28;20108;-65
2021/10/31 12:21:24;;;;;;;2.38;1.30;;;;;;;;;;5051686;28;20048;-64
2021/10/31 12:23:58;;;;;;;3.80;1.70;;;;;;;;;;5050612;28;20646;-66
2021/10/31 12:26:24;;;;;;;2.35;1.38;;;;;;;;;;5050990;28;20025;-66
2021/10/31 12:28:49;;;;;;;2.92;1.05;;;;;;;;;;5051025;28;20382;-66
2021/10/31 12:31:20;;;;;;;2.05;1.13;;;;;;;;;;5050775;28;20021;-67
2021/10/31 12:34:04;;;;;;;3.92;1.50;;;;;;;;;;5050207;28;20709;-67
2021/10/31 12:36:30;;;;;;;3.83;1.60;;;;;;;;;;5050815;28;20112;-67
2021/10/31 12:38:55;;;;;;;0.38;0.38;;;;;;;;;;5050290;28;20028;-67
2021/10/31 12:41:22;;;;;;;3.28;1.05;;;;;;;;;;5050414;28;20017;-67
2021/10/31 12:43:49;;;;;;;3.42;1.08;;;;;;;;;;5041831;28;20029;-67
2021/10/31 12:46:25;;;;;;;2.10;1.15;;;;;;;;;;5050399;28;20021;-66
2021/10/31 12:48:51;;;;;;;2.03;1.40;;;;;;;;;;5050236;28;20021;-67
2021/10/31 12:51:41;;;;;;;1.55;1.02;;;;;;;;;;5050538;28;20424;-67
2021/10/31 12:54:07;;;;;;;5.78;1.30;;;;;;;;;;5050373;28;20099;-66
2021/10/31 12:56:32;;;;;;;2.92;1.15;;;;;;;;;;5049948;28;20104;-65
2021/10/31 12:59:11;;;;;;;3.72;0.93;;;;;;;;;;5049718;28;20109;-67
2021/10/31 13:01:37;;;;;;;6.47;1.75;;;;;;;;;;5049899;28;20381;-67
2021/10/31 13:04:05;;;;;;;5.07;0.80;;;;;;;;;;5050371;28;20025;-64
2021/10/31 13:07:03;;;;;;;2.42;1.30;;;;;;;;;;5050222;28;20033;-65
2021/10/31 13:09:29;;;;;;;2.92;1.75;;;;;;;;;;4996502;28;20120;-66
2021/10/31 13:11:56;;;;;;;2.05;1.30;;;;;;;;;;5043160;28;20025;-64
2021/10/31 13:14:34;;;;;;;2.22;1.38;;;;;;;;;;5039515;28;20032;-64
2021/10/31 13:17:00;;;;;;;2.72;1.45;;;;;;;;;;5039010;28;20025;-64
2021/10/31 13:19:29;;;;;;;4.70;1.90;;;;;;;;;;5045521;28;20026;-66
2021/10/31 13:21:59;;;;;;;4.88;1.27;;;;;;;;;;5044011;28;20031;-65
2021/10/31 13:24:25;;;;;;;;;;;;;;;;;;5050575;28;20199;-65
2021/10/31 13:26:50;;;;;;;1.80;1.05;;;;;;;;;;5036480;28;19988;-66
2021/10/31 13:29:15;;;;;;;2.58;1.20;;;;;;;;;;5039194;28;20074;-65
2021/10/31 13:31:40;;;;;;;3.78;1.92;;;;;;;;;;5049259;28;20024;-67
2021/10/31 13:34:10;;;;;;;1.90;1.20;;;;;;;;;;5049759;28;20059;-65
2021/10/31 13:36:36;;;;;;;5.55;0.98;;;;;;;;;;5047282;28;20280;-65
2021/10/31 13:39:09;;;;;;;1.35;0.90;;;;;;;;;;5042479;28;20070;-65
2021/10/31 13:41:34;;;;;;;2.80;0.95;;;;;;;;;;5030408;28;20155;-65
2021/10/31 13:44:15;;;;;;;2.17;1.20;;;;;;;;;;5030563;28;20104;-64
2021/10/31 13:46:45;;;;;;;1.05;0.88;;;;;;;;;;5030977;28;20017;-64
2021/10/31 13:49:11;;;;;;;0.90;0.60;;;;;;;;;;5044462;28;20033;-65
2021/10/31 13:51:41;;;;;;;2.42;1.00;;;;;;;;;;5043769;28;20021;-68
2021/10/31 13:54:07;;;;;;;1.05;0.93;;;;;;;;;;5051498;28;20393;-65
2021/10/31 13:56:36;;;;;;;1.42;0.75;;;;;;;;;;5032949;28;20040;-65
2021/10/31 13:59:01;;;;;;;0.82;0.75;;;;;;;;;;5048166;28;20033;-64
2021/10/31 14:01:41;;;;;;;6.07;1.15;;;;;;;;;;5047096;28;20027;-66
2021/10/31 14:04:07;;;;;;;2.47;1.38;;;;;;;;;;5047766;28;20106;-64
2021/10/31 14:06:32;;;;;;;1.45;1.10;;;;;;;;;;5035170;28;20124;-66
2021/10/31 14:09:01;;;;;;;3.37;0.80;;;;;;;;;;5037443;28;20104;-66
2021/10/31 14:11:28;;;;;;;1.30;0.77;;;;;;;;;;5039218;28;20268;-67
2021/10/31 14:13:53;;;;;;;3.47;1.25;;;;;;;;;;5031707;28;20024;-65
2021/10/31 14:16:19;;;;;;;3.40;1.27;;;;;;;;;;5042141;28;20025;-65
2021/10/31 14:18:44;;;;;;;0.77;0.30;;;;;;;;;;5034604;28;20066;-66
2021/10/31 14:21:13;;;;;;;3.00;1.00;;;;;;;;;;5034954;28;20390;-66
2021/10/31 14:23:38;;;;;;;1.95;0.90;;;;;;;;;;5040999;28;20021;-66
2021/10/31 14:26:08;;;;;;;1.90;0.40;;;;;;;;;;5051923;28;20044;-67
2021/10/31 14:28:35;;;;;;;1.57;1.03;;;;;;;;;;5039158;28;20021;-66
2021/10/31 14:31:02;;;;;;;0.73;0.50;;;;;;;;;;5046841;28;20248;-68
2021/10/31 14:33:30;;;;;;;2.10;0.88;;;;;;;;;;5043257;28;20025;-68
2021/10/31 14:36:03;;;;;;;1.08;0.70;;;;;;;;;;5053116;28;20037;-68
2021/10/31 14:38:28;;;;;;;1.50;0.65;;;;;;;;;;5039991;28;20017;-67
2021/10/31 14:41:02;;;;;;;1.30;0.63;;;;;;;;;;5034002;28;20386;-67
2021/10/31 14:43:27;;;;;;;1.80;0.55;;;;;;;;;;5045633;28;20323;-66